Time;durP1;ratioP1;P1;durP2;ratioP2;P2;SDS_P1;SDS_P2;PMS_P1;PMS_P2;Temp;Humidity;BMP_temperature;BMP_pressure;BME280_temperature;BME280_humidity;BME280_pressure;Samples;Min_cycle;Max_cycle;Signal;HPM_P1;HPM_P2
2021/07/30 00:00:49;;;;;;;;;;;15.30;99.90;;;;;;6347709;28;19991;-68
2021/07/30 00:03:50;;;;;;;;;;;15.30;99.90;;;;;;6335893;28;19982;-68
2021/07/30 00:07:00;;;;;;;;;;;15.30;99.90;;;;;;6343930;28;19994;-68
2021/07/30 00:10:02;;;;;;;;;;;15.20;99.90;;;;;;6346888;28;19975;-68
2021/07/30 00:13:04;;;;;;;;;;;15.20;99.90;;;;;;6317167;28;19974;-68
2021/07/30 00:16:05;;;;;;;;;;;15.20;99.90;;;;;;6345130;28;19979;-68
2021/07/30 00:19:07;;;;;;;;;;;15.10;99.90;;;;;;6334160;28;20050;-68
2021/07/30 00:22:09;;;;;;;;;;;15.10;99.90;;;;;;6312062;28;20310;-68
2021/07/30 00:25:11;;;;;;;;;;;15.10;99.90;;;;;;6344004;28;19982;-68
2021/07/30 00:28:12;;;;;;;;;;;15.00;99.90;;;;;;6345105;28;20053;-68
2021/07/30 00:31:14;;;;;;;;;;;15.00;99.90;;;;;;6320072;28;19979;-68
2021/07/30 00:34:16;;;;;;;;;;;15.00;99.90;;;;;;6340409;28;20159;-68
2021/07/30 00:37:17;;;;;;;;;;;15.00;99.90;;;;;;6344693;28;20339;-68
2021/07/30 00:40:19;;;;;;;;;;;15.00;99.90;;;;;;6346413;28;20438;-68
2021/07/30 00:43:21;;;;;;;;;;;14.90;99.90;;;;;;6343390;28;19980;-68
2021/07/30 00:46:38;;;;;;;;;;;14.90;99.90;;;;;;6313883;28;19975;-68
2021/07/30 00:49:39;;;;;;;;;;;15.00;99.90;;;;;;6344166;28;19980;-68
2021/07/30 00:52:44;;;;;;;;;;;14.90;99.90;;;;;;6344611;28;20338;-68
2021/07/30 00:55:47;;;;;;;;;;;14.90;99.90;;;;;;6312316;28;20171;-68
2021/07/30 00:58:49;;;;;;;;;;;14.90;99.90;;;;;;6342622;28;20018;-68
2021/07/30 01:01:51;;;;;;;;;;;14.90;99.90;;;;;;6339617;28;20007;-68
2021/07/30 01:04:53;;;;;;;;;;;14.90;99.90;;;;;;6335489;28;20303;-68
2021/07/30 01:07:55;;;;;;;;;;;14.90;99.90;;;;;;6344116;28;20024;-68
2021/07/30 01:10:56;;;;;;;;;;;14.80;99.90;;;;;;6341329;28;19986;-68
2021/07/30 01:13:58;;;;;;;;;;;14.80;99.90;;;;;;6343603;28;19975;-68
2021/07/30 01:17:00;;;;;;;;;;;14.80;99.90;;;;;;6304091;28;20517;-68
2021/07/30 01:20:02;;;;;;;;;;;14.80;99.90;;;;;;6304584;28;20121;-68
2021/07/30 01:23:04;;;;;;;;;;;14.70;99.90;;;;;;6339726;28;19984;-68
2021/07/30 01:26:06;;;;;;;;;;;14.70;99.90;;;;;;6337011;28;19971;-68
2021/07/30 01:29:08;;;;;;;;;;;14.70;99.90;;;;;;6341332;28;20409;-68
2021/07/30 01:32:09;;;;;;;;;;;14.60;99.90;;;;;;6339259;28;19956;-68
2021/07/30 01:35:11;;;;;;;;;;;14.60;99.90;;;;;;6343674;28;19979;-68
2021/07/30 01:38:13;;;;;;;;;;;14.60;99.90;;;;;;6343316;28;20439;-68
2021/07/30 01:41:15;;;;;;;;;;;14.60;99.90;;;;;;6344866;28;19991;-68
2021/07/30 01:44:17;;;;;;;;;;;14.60;99.90;;;;;;6343921;28;20003;-68
2021/07/30 01:47:21;;;;;;;;;;;14.60;99.90;;;;;;6340540;28;19979;-68
2021/07/30 01:50:23;;;;;;;;;;;14.60;99.90;;;;;;6345241;28;19972;-68
2021/07/30 01:53:25;;;;;;;;;;;14.50;99.90;;;;;;6343191;28;20003;-68
2021/07/30 01:56:26;;;;;;;;;;;14.50;99.90;;;;;;6343335;28;19976;-68
2021/07/30 01:59:28;;;;;;;;;;;14.60;99.90;;;;;;6342830;28;19982;-68
2021/07/30 02:02:33;;;;;;;;;;;14.50;99.90;;;;;;6338518;28;19995;-68
2021/07/30 02:05:38;;;;;;;;;;;14.60;99.90;;;;;;6341765;28;19980;-68
2021/07/30 02:08:40;;;;;;;;;;;14.60;99.90;;;;;;6320326;28;20338;-69
2021/07/30 02:11:42;;;;;;;;;;;14.60;99.90;;;;;;6344525;28;20342;-68
2021/07/30 02:14:44;;;;;;;;;;;14.60;99.90;;;;;;6323618;28;19984;-68
2021/07/30 02:17:45;;;;;;;;;;;14.50;99.90;;;;;;6307861;28;20003;-68
2021/07/30 02:20:47;;;;;;;;;;;14.50;99.90;;;;;;6335110;28;19988;-68
2021/07/30 02:23:48;;;;;;;;;;;14.60;99.90;;;;;;6342333;28;20458;-68
2021/07/30 02:26:52;;;;;;;;;;;14.60;99.90;;;;;;6315605;28;19976;-68
2021/07/30 02:29:53;;;;;;;;;;;14.60;99.90;;;;;;6345377;28;20059;-68
2021/07/30 02:32:55;;;;;;;;;;;14.60;99.90;;;;;;6310451;28;20036;-68
2021/07/30 02:35:57;;;;;;;;;;;14.60;99.90;;;;;;6347475;28;20411;-68
2021/07/30 02:38:58;;;;;;;;;;;14.50;99.90;;;;;;6324662;28;19983;-68
2021/07/30 02:42:00;;;;;;;;;;;14.50;99.90;;;;;;6318322;28;20454;-68
2021/07/30 02:45:02;;;;;;;;;;;14.50;99.90;;;;;;6347690;28;20431;-68
2021/07/30 02:48:04;;;;;;;;;;;14.50;99.90;;;;;;6344118;28;19980;-68
2021/07/30 02:51:05;;;;;;;;;;;14.50;99.90;;;;;;6348683;28;20061;-68
2021/07/30 02:54:07;;;;;;;;;;;14.50;99.90;;;;;;6347623;28;19983;-68
2021/07/30 02:57:09;;;;;;;;;;;14.50;99.90;;;;;;6344568;28;20335;-68
2021/07/30 03:00:10;;;;;;;;;;;14.50;99.90;;;;;;6316252;28;20443;-68
2021/07/30 03:03:12;;;;;;;;;;;14.50;99.90;;;;;;6345977;28;20316;-68
2021/07/30 03:06:14;;;;;;;;;;;14.40;99.90;;;;;;6347723;28;20025;-68
2021/07/30 03:09:16;;;;;;;;;;;14.40;99.90;;;;;;6343191;28;19983;-68
2021/07/30 03:12:17;;;;;;;;;;;14.40;99.90;;;;;;6346785;28;19975;-68
2021/07/30 03:15:19;;;;;;;;;;;14.30;99.90;;;;;;6346458;28;19992;-68
2021/07/30 03:18:21;;;;;;;;;;;14.30;99.90;;;;;;6339405;28;19992;-68
2021/07/30 03:21:23;;;;;;;;;;;14.30;99.90;;;;;;6340288;28;19995;-68
2021/07/30 03:24:24;;;;;;;;;;;14.20;99.90;;;;;;6318511;28;20431;-68
2021/07/30 03:27:26;;;;;;;;;;;14.20;99.90;;;;;;6345228;28;19979;-68
2021/07/30 03:30:27;;;;;;;;;;;14.10;99.90;;;;;;6316243;28;19975;-68
2021/07/30 03:33:29;;;;;;;;;;;14.00;99.90;;;;;;6339510;28;20392;-68
2021/07/30 03:36:31;;;;;;;;;;;14.00;99.90;;;;;;6310222;28;19972;-68
2021/07/30 03:39:33;;;;;;;;;;;13.90;99.90;;;;;;6339467;28;20067;-68
2021/07/30 03:42:34;;;;;;;;;;;13.90;99.90;;;;;;6341189;28;20092;-68
2021/07/30 03:45:37;;;;;;;;;;;13.80;99.90;;;;;;6327170;28;20385;-68
2021/07/30 03:48:38;;;;;;;;;;;13.80;99.90;;;;;;6340563;28;19972;-68
2021/07/30 03:51:43;;;;;;;;;;;13.80;99.90;;;;;;6320332;28;20399;-68
2021/07/30 03:54:45;;;;;;;;;;;13.80;99.90;;;;;;6344795;28;20018;-68
2021/07/30 03:57:46;;;;;;;;;;;13.70;99.90;;;;;;6341114;28;19983;-68
2021/07/30 04:00:48;;;;;;;;;;;13.70;99.90;;;;;;6347982;28;19987;-68
2021/07/30 04:03:50;;;;;;;;;;;13.70;99.90;;;;;;6345102;28;20019;-68
2021/07/30 04:06:52;;;;;;;;;;;13.70;99.90;;;;;;6339302;28;19976;-68
2021/07/30 04:09:54;;;;;;;;;;;13.60;99.90;;;;;;6336725;28;19975;-68
2021/07/30 04:12:56;;;;;;;;;;;13.70;99.90;;;;;;6314100;28;20470;-68
2021/07/30 04:16:02;;;;;;;;;;;13.70;99.90;;;;;;6344586;28;20311;-68
2021/07/30 04:19:04;;;;;;;;;;;13.70;99.90;;;;;;6316421;28;19986;-68
2021/07/30 04:22:07;;;;;;;;;;;13.70;99.90;;;;;;6345068;28;20443;-68
2021/07/30 04:25:08;;;;;;;;;;;13.60;99.90;;;;;;6345400;28;19980;-68
2021/07/30 04:28:10;;;;;;;;;;;13.70;99.90;;;;;;6323948;28;19975;-68
2021/07/30 04:31:12;;;;;;;;;;;13.70;99.90;;;;;;6334292;28;20050;-68
2021/07/30 04:34:13;;;;;;;;;;;13.70;99.90;;;;;;6326773;28;19982;-68
2021/07/30 04:37:15;;;;;;;;;;;13.70;99.90;;;;;;6339872;28;20378;-68
2021/07/30 04:40:16;;;;;;;;;;;13.80;99.90;;;;;;6315107;28;19995;-68
2021/07/30 04:43:20;;;;;;;;;;;13.80;99.90;;;;;;6341653;28;19971;-68
2021/07/30 04:46:21;;;;;;;;;;;13.80;99.90;;;;;;6344915;28;19980;-68
2021/07/30 04:49:23;;;;;;;;;;;13.80;99.90;;;;;;6343274;28;20062;-68
2021/07/30 04:52:33;;;;;;;;;;;13.80;99.90;;;;;;6308752;28;19973;-67
2021/07/30 04:55:35;;;;;;;;;;;13.80;99.90;;;;;;6337916;28;20563;-68
2021/07/30 04:58:37;;;;;;;;;;;13.80;99.90;;;;;;6326477;28;20354;-68
2021/07/30 05:01:42;;;;;;;;;;;13.80;99.90;;;;;;6346031;28;19991;-68
2021/07/30 05:04:43;;;;;;;;;;;13.80;99.90;;;;;;6315344;28;20025;-67
2021/07/30 05:07:45;;;;;;;;;;;13.90;99.90;;;;;;6337954;28;20402;-68
2021/07/30 05:10:47;;;;;;;;;;;13.90;99.90;;;;;;6313423;28;20446;-68
2021/07/30 05:13:49;;;;;;;;;;;13.90;99.90;;;;;;6337157;28;19972;-68
2021/07/30 05:16:51;;;;;;;;;;;13.90;99.90;;;;;;6342728;28;20007;-68
2021/07/30 05:19:53;;;;;;;;;;;13.90;99.90;;;;;;6333061;28;20036;-68
2021/07/30 05:22:54;;;;;;;;;;;14.00;99.90;;;;;;6333947;28;20463;-68
2021/07/30 05:25:59;;;;;;;;;;;14.00;99.90;;;;;;6344139;28;19976;-68
2021/07/30 05:29:02;;;;;;;;;;;14.10;99.90;;;;;;6337487;28;19976;-68
2021/07/30 05:32:04;;;;;;;;;;;14.20;99.90;;;;;;6342679;28;20762;-68
2021/07/30 05:35:06;;;;;;;;;;;14.20;99.90;;;;;;6301636;28;20427;-68
2021/07/30 05:38:08;;;;;;;;;;;14.30;99.90;;;;;;6325242;28;19978;-68
2021/07/30 05:41:10;;;;;;;;;;;14.40;99.90;;;;;;6344994;28;20451;-68
2021/07/30 05:44:12;;;;;;;;;;;14.40;99.90;;;;;;6338178;28;19982;-68
2021/07/30 05:47:14;;;;;;;;;;;14.50;99.90;;;;;;6315503;28;19980;-68
2021/07/30 05:50:16;;;;;;;;;;;14.60;99.90;;;;;;6313784;28;19972;-68
2021/07/30 05:53:18;;;;;;;;;;;14.70;99.90;;;;;;6340015;28;20017;-68
2021/07/30 05:56:19;;;;;;;;;;;14.70;99.90;;;;;;6313789;28;19982;-68
2021/07/30 05:59:22;;;;;;;;;;;14.80;99.90;;;;;;6341801;28;19983;-68
2021/07/30 06:02:24;;;;;;;;;;;14.80;99.90;;;;;;6308636;28;19988;-68
2021/07/30 06:05:25;;;;;;;;;;;14.90;99.90;;;;;;6311686;28;20497;-68
2021/07/30 06:08:27;;;;;;;;;;;14.90;99.90;;;;;;6342915;28;20006;-68
2021/07/30 06:11:29;;;;;;;;;;;15.00;99.90;;;;;;6326149;28;19924;-68
2021/07/30 06:14:30;;;;;;;;;;;15.10;99.90;;;;;;6321424;28;19980;-68
2021/07/30 06:17:36;;;;;;;;;;;15.20;99.90;;;;;;6312312;28;20073;-68
2021/07/30 06:20:38;;;;;;;;;;;15.20;99.90;;;;;;6330158;28;20453;-68
2021/07/30 06:23:39;;;;;;;;;;;15.30;99.90;;;;;;6313904;28;20002;-68
2021/07/30 06:26:41;;;;;;;;;;;15.40;99.90;;;;;;6313742;28;20486;-68
2021/07/30 06:29:43;;;;;;;;;;;15.50;99.90;;;;;;6343492;28;19975;-68
2021/07/30 06:32:45;;;;;;;;;;;15.60;99.90;;;;;;6315718;28;19972;-68
2021/07/30 06:35:50;;;;;;;;;;;15.60;99.90;;;;;;6342136;28;19975;-68
2021/07/30 06:38:51;;;;;;;;;;;15.70;99.90;;;;;;6315097;28;19999;-68
2021/07/30 06:41:53;;;;;;;;;;;15.70;99.90;;;;;;6343272;28;19998;-68
2021/07/30 06:44:55;;;;;;;;;;;15.80;99.90;;;;;;6311072;28;19983;-68
2021/07/30 06:47:56;;;;;;;;;;;15.80;99.90;;;;;;6335594;28;20384;-68
2021/07/30 06:50:58;;;;;;;;;;;15.90;99.90;;;;;;6344001;28;19976;-67
2021/07/30 06:54:00;;;;;;;;;;;15.90;99.90;;;;;;6321188;28;19988;-68
2021/07/30 06:57:02;;;;;;;;;;;16.00;99.90;;;;;;6342295;28;19999;-68
2021/07/30 07:00:04;;;;;;;;;;;16.00;99.90;;;;;;6319546;28;20005;-68
2021/07/30 07:03:05;;;;;;;;;;;16.10;99.90;;;;;;6318055;28;20515;-68
2021/07/30 07:06:12;;;;;;;;;;;16.10;99.90;;;;;;6341772;28;20426;-67
2021/07/30 07:09:13;;;;;;;;;;;16.20;99.90;;;;;;6319470;28;19980;-68
2021/07/30 07:12:15;;;;;;;;;;;16.30;99.90;;;;;;6341024;28;20380;-68
2021/07/30 07:15:17;;;;;;;;;;;16.30;99.90;;;;;;6344493;28;20466;-68
2021/07/30 07:18:18;;;;;;;;;;;16.40;99.90;;;;;;6334088;28;20003;-68
2021/07/30 07:21:20;;;;;;;;;;;16.50;99.90;;;;;;6327963;28;19988;-68
2021/07/30 07:24:22;;;;;;;;;;;16.50;99.90;;;;;;6312492;28;20454;-68
2021/07/30 07:27:24;;;;;;;;;;;16.60;99.90;;;;;;6346992;28;20017;-68
2021/07/30 07:30:25;;;;;;;;;;;16.60;99.90;;;;;;6341128;28;19999;-68
2021/07/30 07:33:27;;;;;;;;;;;16.70;99.90;;;;;;6323942;28;20435;-67
2021/07/30 07:36:29;;;;;;;;;;;16.70;99.90;;;;;;6346289;28;19975;-68
2021/07/30 07:39:32;;;;;;;;;;;16.80;99.90;;;;;;6346625;28;19962;-68
2021/07/30 07:42:34;;;;;;;;;;;16.90;99.90;;;;;;6342949;28;19984;-68
2021/07/30 07:45:36;;;;;;;;;;;17.00;99.90;;;;;;6346583;28;19976;-68
2021/07/30 07:48:38;;;;;;;;;;;17.10;99.90;;;;;;6315251;28;20346;-68
2021/07/30 07:51:40;;;;;;;;;;;17.30;99.90;;;;;;6319249;28;19971;-68
2021/07/30 07:54:41;;;;;;;;;;;17.40;99.90;;;;;;6340854;28;20420;-68
2021/07/30 07:57:43;;;;;;;;;;;17.50;99.90;;;;;;6346131;28;19972;-68
2021/07/30 08:00:45;;;;;;;;;;;17.70;99.90;;;;;;6340308;28;20394;-67
2021/07/30 08:03:47;;;;;;;;;;;17.80;99.90;;;;;;6342550;28;20007;-68
2021/07/30 08:06:48;;;;;;;;;;;18.00;99.90;;;;;;6332086;28;19983;-68
2021/07/30 08:09:50;;;;;;;;;;;18.10;99.90;;;;;;6313724;28;19961;-68
2021/07/30 08:12:52;;;;;;;;;;;18.20;99.90;;;;;;6338638;28;19967;-67
2021/07/30 08:15:54;;;;;;;;;;;18.30;99.90;;;;;;6342841;28;20474;-68
2021/07/30 08:18:56;;;;;;;;;;;18.40;99.90;;;;;;6317457;28;19976;-67
2021/07/30 08:21:57;;;;;;;;;;;18.40;99.90;;;;;;6340672;28;19991;-67
2021/07/30 08:24:59;;;;;;;;;;;18.50;99.90;;;;;;6344298;28;19999;-68
2021/07/30 08:28:04;;;;;;;;;;;18.50;99.90;;;;;;6341993;28;19983;-67
2021/07/30 08:31:05;;;;;;;;;;;18.50;99.90;;;;;;6341045;28;19976;-68
2021/07/30 08:34:07;;;;;;;;;;;18.50;99.90;;;;;;6340017;28;20366;-67
2021/07/30 08:37:09;;;;;;;;;;;18.60;99.90;;;;;;6339528;28;20266;-67
2021/07/30 08:40:13;;;;;;;;;;;18.60;99.90;;;;;;6327777;28;19976;-67
2021/07/30 08:43:15;;;;;;;;;;;18.70;99.90;;;;;;6341530;28;19988;-68
2021/07/30 08:46:16;;;;;;;;;;;18.70;99.90;;;;;;6341446;28;20891;-68
2021/07/30 08:49:18;;;;;;;;;;;18.80;99.90;;;;;;6342881;28;20430;-68
2021/07/30 08:52:25;;;;;;;;;;;18.80;99.90;;;;;;6329285;28;19976;-68
2021/07/30 08:55:30;;;;;;;;;;;18.80;99.90;;;;;;6341273;28;20431;-68
2021/07/30 08:58:35;;;;;;;;;;;18.90;99.90;;;;;;6315112;28;19984;-67
2021/07/30 09:01:37;;;;;;;;;;;18.90;99.90;;;;;;6334624;28;20501;-68
2021/07/30 09:04:39;;;;;;;;;;;19.00;99.90;;;;;;6310829;28;19982;-67
2021/07/30 09:07:40;;;;;;;;;;;19.10;99.90;;;;;;6339040;28;19973;-68
2021/07/30 09:10:43;;;;;;;;;;;19.20;99.90;;;;;;6341058;28;19982;-67
2021/07/30 09:13:44;;;;;;;;;;;19.20;99.90;;;;;;6334822;28;19979;-68
2021/07/30 09:16:47;;;;;;;;;;;19.30;99.90;;;;;;6343690;28;20080;-67
2021/07/30 09:20:02;;;;;;;;;;;19.40;99.90;;;;;;6334106;28;19980;-68
2021/07/30 09:23:04;;;;;;;;;;;19.40;99.90;;;;;;6339771;28;20326;-68
2021/07/30 09:26:06;;;;;;;;;;;19.40;99.90;;;;;;6312289;28;19979;-68
2021/07/30 09:29:12;;;;;;;;;;;19.40;99.90;;;;;;6306812;28;19999;-68
2021/07/30 09:32:15;;;;;;;;;;;19.40;99.90;;;;;;6320742;28;19977;-67
2021/07/30 09:35:16;;;;;;;;;;;19.40;99.90;;;;;;6333990;28;20020;-68
2021/07/30 09:38:18;;;;;;;;;;;19.50;99.90;;;;;;6318372;28;19984;-68
2021/07/30 09:41:20;;;;;;;;;;;19.50;99.90;;;;;;6340376;28;20011;-67
2021/07/30 09:44:21;;;;;;;;;;;19.50;99.90;;;;;;6316503;28;20294;-68
2021/07/30 09:47:31;;;;;;;;;;;19.50;99.90;;;;;;6342192;28;19972;-68
2021/07/30 09:50:32;;;;;;;;;;;19.60;99.90;;;;;;6344988;28;19976;-68
2021/07/30 09:53:34;;;;;;;;;;;19.70;99.90;;;;;;6337584;28;19990;-68
2021/07/30 09:56:36;;;;;;;;;;;19.70;99.90;;;;;;6343348;28;19975;-67
2021/07/30 09:59:40;;;;;;;;;;;19.80;99.90;;;;;;6341561;28;20001;-68
2021/07/30 10:02:43;;;;;;;;;;;19.80;99.90;;;;;;6339389;28;20407;-68
2021/07/30 10:05:46;;;;;;;;;;;19.80;99.90;;;;;;6338373;28;19972;-68
2021/07/30 10:08:47;;;;;;;;;;;19.90;99.90;;;;;;6333961;28;20025;-67
2021/07/30 10:11:49;;;;;;;;;;;19.90;99.90;;;;;;6340962;28;20005;-68
2021/07/30 10:14:51;;;;;;;;;;;20.00;99.90;;;;;;6340018;28;19983;-68
2021/07/30 10:17:56;;;;;;;;;;;20.10;99.90;;;;;;6339801;28;20000;-68
2021/07/30 10:21:00;;;;;;;;;;;20.20;99.90;;;;;;6337252;28;19972;-68
2021/07/30 10:24:02;;;;;;;;;;;20.20;99.90;;;;;;6332163;28;19999;-68
2021/07/30 10:27:05;;;;;;;;;;;20.20;99.90;;;;;;6338073;28;19986;-68
2021/07/30 10:30:11;;;;;;;;;;;20.30;99.90;;;;;;6337204;28;20300;-68
2021/07/30 10:33:12;;;;;;;;;;;20.30;99.90;;;;;;6334053;28;19976;-68
2021/07/30 10:36:29;;;;;;;;;;;20.30;99.90;;;;;;6342203;28;19972;-67
2021/07/30 10:39:31;;;;;;;;;;;20.40;99.90;;;;;;6343583;28;19979;-67
2021/07/30 10:42:32;;;;;;;;;;;20.40;99.90;;;;;;6339889;28;19984;-67
2021/07/30 10:45:35;;;;;;;;;;;20.50;99.90;;;;;;6336670;28;19981;-68
2021/07/30 10:48:38;;;;;;;;;;;20.50;99.90;;;;;;6345674;28;20436;-68
2021/07/30 10:51:40;;;;;;;;;;;20.60;99.90;;;;;;6349255;28;19972;-68
2021/07/30 10:54:50;;;;;;;;;;;20.70;99.90;;;;;;6333717;28;19979;-68
2021/07/30 10:57:56;;;;;;;;;;;20.70;99.90;;;;;;6339667;28;19977;-68
2021/07/30 11:00:57;;;;;;;;;;;20.80;99.90;;;;;;6309018;28;20415;-67
2021/07/30 11:04:02;;;;;;;;;;;20.80;99.90;;;;;;6333422;28;19995;-67
2021/07/30 11:07:05;;;;;;;;;;;20.80;99.90;;;;;;6337826;28;20366;-67
2021/07/30 11:10:17;;;;;;;;;;;20.90;99.90;;;;;;6344617;28;20300;-68
2021/07/30 11:13:19;;;;;;;;;;;21.00;99.90;;;;;;6343907;28;20481;-68
2021/07/30 11:16:24;;;;;;;;;;;21.00;99.90;;;;;;6343625;28;19972;-68
2021/07/30 11:19:26;;;;;;;;;;;21.10;99.90;;;;;;6333423;28;19979;-68
2021/07/30 11:22:28;;;;;;;;;;;21.10;99.90;;;;;;6316203;28;19988;-68
2021/07/30 11:25:29;;;;;;;;;;;21.10;99.90;;;;;;6340033;28;19999;-68
2021/07/30 11:28:32;;;;;;;;;;;21.00;99.90;;;;;;6343799;28;20005;-68
2021/07/30 11:31:58;;;;;;;;;;;21.00;99.90;;;;;;6345890;28;19971;-68
2021/07/30 11:35:08;;;;;;;;;;;21.10;99.90;;;;;;6318985;28;19987;-68
2021/07/30 11:38:10;;;;;;;;;;;21.10;99.90;;;;;;6345891;28;20002;-68
2021/07/30 11:41:13;;;;;;;;;;;21.20;99.90;;;;;;6326824;28;19983;-68
2021/07/30 11:44:15;;;;;;;;;;;21.20;99.90;;;;;;6339706;28;19991;-68
2021/07/30 11:47:18;;;;;;;;;;;21.20;99.90;;;;;;6339209;28;19976;-68
2021/07/30 11:50:20;;;;;;;;;;;21.20;99.90;;;;;;6347047;28;19986;-68
2021/07/30 11:53:21;;;;;;;;;;;21.30;99.90;;;;;;6320817;28;19976;-68
2021/07/30 11:56:23;;;;;;;;;;;21.30;99.90;;;;;;6343837;28;20431;-68
2021/07/30 11:59:25;;;;;;;;;;;21.30;99.90;;;;;;6323758;28;19976;-68
2021/07/30 12:02:27;;;;;;;;;;;21.30;99.90;;;;;;6340911;28;19988;-68
2021/07/30 12:05:33;;;;;;;;;;;21.40;99.90;;;;;;6345114;28;20015;-68
2021/07/30 12:08:36;;;;;;;;;;;21.40;99.90;;;;;;6345724;28;20064;-68
2021/07/30 12:11:41;;;;;;;;;;;21.40;99.90;;;;;;6344824;28;20028;-68
2021/07/30 12:14:47;;;;;;;;;;;21.30;99.90;;;;;;6339530;28;20427;-68
2021/07/30 12:17:49;;;;;;;;;;;21.30;99.90;;;;;;6334244;28;19996;-68
2021/07/30 12:20:50;;;;;;;;;;;21.20;99.90;;;;;;6341862;28;19979;-69
2021/07/30 12:24:02;;;;;;;;;;;21.20;99.90;;;;;;6343137;28;19995;-68
2021/07/30 12:27:17;;;;;;;;;;;21.20;99.90;;;;;;6334378;28;19984;-68
2021/07/30 12:30:29;;;;;;;;;;;21.20;99.90;;;;;;6336197;28;19972;-68
2021/07/30 12:33:32;;;;;;;;;;;21.20;99.90;;;;;;6343606;28;19980;-68
2021/07/30 12:36:34;;;;;;;;;;;21.10;99.90;;;;;;6345248;28;19972;-68
2021/07/30 12:39:43;;;;;;;;;;;21.10;99.90;;;;;;6340607;28;19975;-68
2021/07/30 12:42:44;;;;;;;;;;;21.10;99.90;;;;;;6341492;28;19992;-68
2021/07/30 12:45:49;;;;;;;;;;;21.10;99.90;;;;;;6335870;28;19972;-68
2021/07/30 12:48:51;;;;;;;;;;;21.10;99.90;;;;;;6316685;28;19995;-68
2021/07/30 12:51:52;;;;;;;;;;;21.10;99.90;;;;;;6310955;28;20478;-68
2021/07/30 12:55:04;;;;;;;;;;;21.10;99.90;;;;;;6344058;28;19975;-68
2021/07/30 12:58:07;;;;;;;;;;;21.10;99.90;;;;;;6343383;28;19976;-68
2021/07/30 13:01:13;;;;;;;;;;;21.10;99.90;;;;;;6324895;28;19984;-68
2021/07/30 13:04:15;;;;;;;;;;;21.20;99.90;;;;;;6339465;28;19988;-68
2021/07/30 13:07:17;;;;;;;;;;;21.20;99.90;;;;;;6342589;28;20017;-68
2021/07/30 13:10:19;;;;;;;;;;;21.20;99.90;;;;;;6343984;28;19979;-67
2021/07/30 13:13:22;;;;;;;;;;;21.30;99.90;;;;;;6319749;28;19987;-68
2021/07/30 13:16:24;;;;;;;;;;;21.30;99.90;;;;;;6326880;28;20018;-68
2021/07/30 13:19:25;;;;;;;;;;;21.30;99.90;;;;;;6333955;28;19992;-68
2021/07/30 13:22:27;;;;;;;;;;;21.40;99.90;;;;;;6339552;28;19991;-68
2021/07/30 13:25:29;;;;;;;;;;;21.40;99.90;;;;;;6322339;28;20044;-68
2021/07/30 13:28:30;;;;;;;;;;;21.40;99.90;;;;;;6341716;28;20078;-68
2021/07/30 13:31:32;;;;;;;;;;;21.40;99.90;;;;;;6314324;28;19972;-68
2021/07/30 13:34:34;;;;;;;;;;;21.40;99.90;;;;;;6326504;28;19979;-68
2021/07/30 13:37:36;;;;;;;;;;;21.30;99.90;;;;;;6342226;28;19972;-68
2021/07/30 13:40:39;;;;;;;;;;;21.20;99.90;;;;;;6341323;28;19972;-68
2021/07/30 13:43:42;;;;;;;;;;;20.90;99.90;;;;;;6340581;28;19995;-68
2021/07/30 13:46:43;;;;;;;;;;;20.40;99.90;;;;;;6344482;28;20057;-68
2021/07/30 13:49:45;;;;;;;;;;;20.00;99.90;;;;;;6339955;28;19968;-67
2021/07/30 13:52:47;;;;;;;;;;;19.50;99.90;;;;;;6335885;28;19972;-67
2021/07/30 13:55:48;;;;;;;;;;;19.20;99.90;;;;;;6317814;28;19972;-68
2021/07/30 13:58:50;;;;;;;;;;;19.10;99.90;;;;;;6340645;28;19979;-68
2021/07/30 14:01:53;;;;;;;;;;;18.90;99.90;;;;;;6338303;28;20461;-68
2021/07/30 14:04:55;;;;;;;;;;;18.90;99.90;;;;;;6342643;28;19992;-68
2021/07/30 14:07:56;;;;;;;;;;;18.80;99.90;;;;;;6317773;28;19980;-69
2021/07/30 14:10:58;;;;;;;;;;;18.80;99.90;;;;;;6344134;28;19991;-69
2021/07/30 14:13:59;;;;;;;;;;;18.80;99.90;;;;;;6314356;28;19987;-69
2021/07/30 14:17:02;;;;;;;;;;;18.90;99.90;;;;;;6314898;28;20003;-69
2021/07/30 14:20:08;;;;;;;;;;;19.10;99.90;;;;;;6332193;28;19990;-69
2021/07/30 14:23:09;;;;;;;;;;;19.20;99.90;;;;;;6337870;28;19996;-68
2021/07/30 14:26:11;;;;;;;;;;;19.30;99.90;;;;;;6348672;28;19972;-68
2021/07/30 14:29:13;;;;;;;;;;;19.40;99.90;;;;;;6315625;28;20427;-69
2021/07/30 14:32:15;;;;;;;;;;;19.60;99.90;;;;;;6348385;28;19984;-69
2021/07/30 14:35:16;;;;;;;;;;;19.60;99.90;;;;;;6341835;28;19980;-69
2021/07/30 14:38:18;;;;;;;;;;;19.70;99.90;;;;;;6343695;28;20017;-68
2021/07/30 14:41:20;;;;;;;;;;;19.80;99.90;;;;;;6350146;28;19975;-68
2021/07/30 14:44:25;;;;;;;;;;;19.90;99.90;;;;;;6318627;28;20002;-68
2021/07/30 14:47:27;;;;;;;;;;;20.00;99.90;;;;;;6346677;28;20041;-69
2021/07/30 14:50:28;;;;;;;;;;;20.10;99.90;;;;;;6324133;28;19983;-68
2021/07/30 14:53:31;;;;;;;;;;;20.30;99.90;;;;;;6345097;28;19972;-68
2021/07/30 14:56:33;;;;;;;;;;;20.40;99.90;;;;;;6339912;28;19976;-68
2021/07/30 14:59:35;;;;;;;;;;;20.40;99.90;;;;;;6323921;28;19983;-68
2021/07/30 15:02:36;;;;;;;;;;;20.50;99.90;;;;;;6317464;28;19986;-68
2021/07/30 15:05:39;;;;;;;;;;;20.40;99.90;;;;;;6343107;28;20412;-68
2021/07/30 15:08:41;;;;;;;;;;;20.30;99.90;;;;;;6337711;28;20376;-68
2021/07/30 15:11:43;;;;;;;;;;;20.30;99.90;;;;;;6348589;28;20341;-68
2021/07/30 15:14:46;;;;;;;;;;;20.20;99.90;;;;;;6345773;28;20322;-68
2021/07/30 15:17:48;;;;;;;;;;;20.20;99.90;;;;;;6332156;28;20472;-67
2021/07/30 15:20:50;;;;;;;;;;;20.20;99.90;;;;;;6319278;28;20395;-68
2021/07/30 15:23:52;;;;;;;;;;;20.20;99.90;;;;;;6318567;28;20004;-68
2021/07/30 15:26:53;;;;;;;;;;;20.10;99.90;;;;;;6320543;28;19958;-68
2021/07/30 15:29:55;;;;;;;;;;;20.10;99.90;;;;;;6320181;28;21249;-68
2021/07/30 15:32:56;;;;;;;;;;;20.20;99.90;;;;;;6320233;28;19976;-67
2021/07/30 15:36:12;;;;;;;;;;;20.20;99.90;;;;;;6299839;28;19976;-68
2021/07/30 15:39:16;;;;;;;;;;;20.10;99.90;;;;;;6301992;28;20415;-68
2021/07/30 15:42:18;;;;;;;;;;;20.00;99.90;;;;;;6319269;28;20072;-67
2021/07/30 15:45:19;;;;;;;;;;;19.70;99.90;;;;;;6316503;28;20465;-68
2021/07/30 15:48:21;;;;;;;;;;;19.30;99.90;;;;;;6319486;28;20403;-67
2021/07/30 15:51:23;;;;;;;;;;;19.10;99.90;;;;;;6320119;28;19972;-67
2021/07/30 15:54:24;;;;;;;;;;;18.90;99.90;;;;;;6316063;28;20462;-67
2021/07/30 15:57:26;;;;;;;;;;;18.80;99.90;;;;;;6317736;28;20450;-68
2021/07/30 16:00:27;;;;;;;;;;;18.60;99.90;;;;;;6318278;28;19995;-68
2021/07/30 16:03:29;;;;;;;;;;;18.60;99.90;;;;;;6315645;28;20092;-68
2021/07/30 16:06:31;;;;;;;;;;;18.60;99.90;;;;;;6318043;28;19995;-68
2021/07/30 16:09:33;;;;;;;;;;;18.70;99.90;;;;;;6317202;28;19972;-68
2021/07/30 16:12:35;;;;;;;;;;;18.70;99.90;;;;;;6317943;28;20025;-67
2021/07/30 16:15:37;;;;;;;;;;;18.80;99.90;;;;;;6315074;28;20025;-68
2021/07/30 16:18:40;;;;;;;;;;;18.90;99.90;;;;;;6316355;28;19999;-68
2021/07/30 16:21:45;;;;;;;;;;;19.00;99.90;;;;;;6316907;28;20300;-68
2021/07/30 16:24:47;;;;;;;;;;;19.20;99.90;;;;;;6314684;28;19992;-68
2021/07/30 16:27:50;;;;;;;;;;;19.30;99.90;;;;;;6299069;28;19982;-68
2021/07/30 16:30:51;;;;;;;;;;;19.50;99.90;;;;;;6317654;28;19979;-68
2021/07/30 16:33:58;;;;;;;;;;;19.80;99.90;;;;;;6314918;28;19980;-68
2021/07/30 16:37:00;;;;;;;;;;;20.10;99.90;;;;;;6316339;28;20051;-68
2021/07/30 16:40:02;;;;;;;;;;;20.50;99.90;;;;;;6297573;28;19992;-68
2021/07/30 16:43:03;;;;;;;;;;;20.80;99.90;;;;;;6314162;28;19972;-67
2021/07/30 16:46:07;;;;;;;;;;;21.00;99.90;;;;;;6300189;28;19994;-68
2021/07/30 16:49:08;;;;;;;;;;;21.10;99.90;;;;;;6316225;28;19976;-68
2021/07/30 16:52:10;;;;;;;;;;;21.10;99.90;;;;;;6316741;28;20458;-68
2021/07/30 16:55:12;;;;;;;;;;;20.80;99.90;;;;;;6297410;28;19983;-68
2021/07/30 16:58:13;;;;;;;;;;;20.60;99.90;;;;;;6300216;28;20093;-68
2021/07/30 17:01:16;;;;;;;;;;;20.40;99.90;;;;;;6298550;28;20404;-68
2021/07/30 17:04:18;;;;;;;;;;;20.20;99.90;;;;;;6314954;28;20176;-67
2021/07/30 17:07:19;;;;;;;;;;;20.10;99.90;;;;;;6317170;28;20757;-68
2021/07/30 17:10:21;;;;;;;;;;;19.90;99.90;;;;;;6316436;28;19980;-68
2021/07/30 17:13:23;;;;;;;;;;;19.80;99.90;;;;;;6295586;28;20439;-67
2021/07/30 17:16:27;;;;;;;;;;;19.70;99.90;;;;;;6299413;28;20137;-68
2021/07/30 17:19:29;;;;;;;;;;;19.60;99.90;;;;;;6315358;28;19972;-68
2021/07/30 17:22:31;;;;;;;;;;;19.50;99.90;;;;;;6315489;28;19979;-67
2021/07/30 17:25:33;;;;;;;;;;;19.50;99.90;;;;;;6298092;28;19996;-68
2021/07/30 17:28:35;;;;;;;;;;;19.40;99.90;;;;;;6316385;28;19992;-68
2021/07/30 17:31:38;;;;;;;;;;;19.40;99.90;;;;;;6316619;28;20326;-68
2021/07/30 17:34:40;;;;;;;;;;;19.50;99.90;;;;;;6314116;28;19972;-68
2021/07/30 17:37:41;;;;;;;;;;;19.60;99.90;;;;;;6315942;28;20753;-68
2021/07/30 17:40:43;;;;;;;;;;;19.70;99.90;;;;;;6316938;28;19980;-68